Overview Statistics Trail Chart Weather Telemetry Raw packets
 

This is the latest recevied weather packets stored in our database for station/object KQ7A. If no packets are shown the sender has not sent any weather packets the latest 10 day(s).

<< 107 108 109 110 111 112 113 >>
Time Temp. Humidity Pressure Rain* Wind** Luminosity Snow
1787871864 27.78° C 27% 1021.4 hPa 0 mm - 158 W/m² -
1787871558 27.78° C 27% 1021.4 hPa 0 mm - 159 W/m² -
1787871255 27.78° C 27% 1021.3 hPa 0 mm - 157 W/m² -
1787870949 27.78° C 27% 1021.6 hPa 0 mm - 155 W/m² -
1787870649 27.78° C 25% 1021.4 hPa 0 mm - 168 W/m² -
1787870344 28.33° C 26% 1021.5 hPa 0 mm - 174 W/m² -
1787870039 28.33° C 25% 1021.5 hPa 0 mm - 209 W/m² -
1787869737 28.33° C 25% 1021.4 hPa 0 mm - 202 W/m² -
1787869432 28.33° C 25% 1021.5 hPa 0 mm - 217 W/m² -
1787869127 28.33° C 26% 1021.5 hPa 0 mm - 190 W/m² -
1787868826 28.33° C 26% 1021.3 hPa 0 mm - 192 W/m² -
1787868525 28.33° C 24% 1021.4 hPa 0 mm - 190 W/m² -
1787868223 28.33° C 24% 1021.4 hPa 0 mm - 179 W/m² -
1787867918 28.89° C 24% 1021.4 hPa 0 mm - 183 W/m² -
1787867614 28.89° C 24% 1021.4 hPa 0 mm - 201 W/m² -
1787867314 28.89° C 23% 1021.6 hPa 0 mm - 212 W/m² -
1787867010 28.89° C 23% 1021.3 hPa 0 mm - 229 W/m² -
1787866705 29.44° C 24% 1021.5 hPa 0 mm - 238 W/m² -
1787866404 29.44° C 23% 1021.2 hPa 0 mm - 229 W/m² -
1787866099 29.44° C 25% 1021.4 hPa 0 mm - 216 W/m² -
1787865794 29.44° C 25% 1021.2 hPa 0 mm - 203 W/m² -
1787865489 29.44° C 23% 1021.4 hPa 0 mm - 187 W/m² -
1787865184 30° C 29% 1021.2 hPa 0 mm - 218 W/m² -
1787864881 30° C 25% 1021.5 hPa 0 mm - 241 W/m² -
1787864580 29.44° C 24% 1021.4 hPa 0 mm - 269 W/m² -

* Rain latest hour (hover to see other rain measurements)
** Current wind speed in m/s (hover to see current wind gust speed)